Wetterdaten: Woche 10.07.17 - 16.07.17 (KW28)
Datum Zeit Temp. A. Pool Temp. Feuchte A. Luftdruck Regen Wind Richtung Sonnenschein ET UV Solar Taupunkt Windchill Windben Empfang
10.07.2017 00:00 18,8 C 25,6 C 91 % 1010,3 hPa 0,0 l/m 3,6 km/h (1 Bft) N-NO 0,00 h 0,000 mm 0,0 UV-I 0 W/m 17,4 C 18,7 C 6,9 km/h (2 Bft) 96,74 %
10.07.2017 01:00 18,5 C 25,6 C 95 % 1009,3 hPa 0,0 l/m 6,3 km/h (2 Bft) N-NO 0,00 h 0,000 mm 0,0 UV-I 0 W/m 17,7 C 17,8 C 10,1 km/h (2 Bft) 96,34 %
10.07.2017 02:00 18,3 C 25,5 C 96 % 1008,3 hPa 0,0 l/m 3,5 km/h (1 Bft) O 0,00 h 0,000 mm 0,0 UV-I 0 W/m 17,7 C 18,2 C 7,0 km/h (2 Bft) 96,01 %
10.07.2017 03:00 17,4 C 25,0 C 96 % 1008,0 hPa 0,0 l/m 0,5 km/h (0 Bft) O 0,00 h 0,000 mm 0,0 UV-I 0 W/m 16,8 C 17,4 C 1,2 km/h (1 Bft) 98,31 %
10.07.2017 04:00 17,4 C 25,0 C 97 % 1007,8 hPa 0,2 l/m 1,2 km/h (1 Bft) O 0,00 h 0,000 mm 0,0 UV-I 0 W/m 16,9 C 17,4 C 2,6 km/h (1 Bft) 96,57 %
10.07.2017 05:00 17,5 C 25,0 C 97 % 1007,8 hPa 0,0 l/m 2,8 km/h (1 Bft) O-NO 0,03 h 0,000 mm 0,0 UV-I 9 W/m 17,1 C 17,5 C 5,3 km/h (1 Bft) 95,73 %
10.07.2017 06:00 17,7 C 25,0 C 98 % 1008,3 hPa 0,2 l/m 1,1 km/h (1 Bft) W-NW 0,00 h 0,000 mm 0,0 UV-I 33 W/m 17,3 C 17,7 C 2,9 km/h (1 Bft) 96,33 %
10.07.2017 07:00 17,9 C 25,0 C 98 % 1008,8 hPa 0,0 l/m 0,8 km/h (0 Bft) N-NW 0,00 h 0,025 mm 0,0 UV-I 80 W/m 17,6 C 17,9 C 2,1 km/h (1 Bft) 96,95 %
10.07.2017 08:00 18,5 C 25,0 C 97 % 1008,8 hPa 0,0 l/m 2,0 km/h (1 Bft) NO 0,00 h 0,051 mm 0,7 UV-I 146 W/m 18,0 C 18,5 C 4,1 km/h (1 Bft) 96,40 %
10.07.2017 09:00 19,3 C 25,0 C 94 % 1008,7 hPa 0,0 l/m 2,8 km/h (1 Bft) S-SO 0,00 h 0,076 mm 0,9 UV-I 162 W/m 18,4 C 19,3 C 5,3 km/h (1 Bft) 95,42 %
10.07.2017 10:00 21,3 C 25,0 C 88 % 1008,7 hPa 0,0 l/m 5,3 km/h (1 Bft) S 0,75 h 0,102 mm 3,5 UV-I 571 W/m 19,1 C 21,2 C 9,3 km/h (2 Bft) 95,87 %
10.07.2017 11:00 23,6 C 25,2 C 76 % 1008,6 hPa 0,0 l/m 8,2 km/h (2 Bft) W-SW 1,00 h 0,381 mm 5,5 UV-I 829 W/m 19,1 C 23,0 C 14,3 km/h (3 Bft) 96,35 %
10.07.2017 12:00 25,3 C 25,6 C 69 % 1008,7 hPa 0,0 l/m 8,0 km/h (2 Bft) W-SW 1,00 h 0,533 mm 6,0 UV-I 876 W/m 19,1 C 24,9 C 14,2 km/h (3 Bft) 95,98 %
10.07.2017 13:00 26,4 C 26,0 C 63 % 1008,6 hPa 0,0 l/m 7,5 km/h (2 Bft) W-SW 0,73 h 0,534 mm 5,3 UV-I 720 W/m 18,7 C 26,1 C 15,3 km/h (3 Bft) 95,75 %
10.07.2017 14:00 27,4 C 26,1 C 57 % 1008,5 hPa 0,0 l/m 9,8 km/h (2 Bft) W-SW 1,00 h 0,508 mm 5,6 UV-I 894 W/m 18,0 C 26,9 C 18,1 km/h (3 Bft) 97,48 %
10.07.2017 15:00 27,4 C 26,5 C 55 % 1008,2 hPa 0,0 l/m 7,5 km/h (2 Bft) W-SW 0,60 h 0,635 mm 3,6 UV-I 484 W/m 17,5 C 27,2 C 14,3 km/h (3 Bft) 98,48 %
10.07.2017 16:00 28,2 C 26,7 C 51 % 1007,7 hPa 0,0 l/m 8,5 km/h (2 Bft) SW 0,90 h 0,355 mm 2,9 UV-I 581 W/m 16,9 C 27,9 C 15,3 km/h (3 Bft) 95,58 %
10.07.2017 17:00 28,8 C 26,7 C 50 % 1007,2 hPa 0,0 l/m 7,4 km/h (2 Bft) W-SW 0,90 h 0,432 mm 1,8 UV-I 452 W/m 17,2 C 28,7 C 13,6 km/h (3 Bft) 96,96 %
10.07.2017 18:00 28,2 C 26,7 C 51 % 1007,0 hPa 0,0 l/m 6,0 km/h (2 Bft) W 0,50 h 0,356 mm 0,7 UV-I 246 W/m 17,2 C 28,1 C 11,1 km/h (2 Bft) 97,09 %
10.07.2017 19:00 27,3 C 26,7 C 53 % 1006,9 hPa 0,0 l/m 2,2 km/h (1 Bft) W-SW 0,27 h 0,203 mm 0,0 UV-I 103 W/m 16,9 C 27,3 C 5,4 km/h (1 Bft) 95,88 %
10.07.2017 20:00 26,2 C 26,7 C 53 % 1006,8 hPa 0,0 l/m 1,9 km/h (1 Bft) W 0,33 h 0,102 mm 0,0 UV-I 37 W/m 15,7 C 26,2 C 4,2 km/h (1 Bft) 94,60 %
10.07.2017 21:00 23,5 C 26,7 C 69 % 1007,7 hPa 0,6 l/m 9,2 km/h (2 Bft) W 0,00 h 0,050 mm 0,0 UV-I 4 W/m 17,2 C 22,5 C 14,8 km/h (3 Bft) 95,95 %
10.07.2017 22:00 19,5 C 26,3 C 92 % 1009,6 hPa 8,8 l/m 9,4 km/h (2 Bft) SW 0,00 h 0,051 mm 0,0 UV-I 0 W/m 18,1 C 18,1 C 15,5 km/h (3 Bft) 96,21 %
10.07.2017 23:00 18,1 C 26,1 C 93 % 1010,1 hPa 1,2 l/m 10,1 km/h (2 Bft) S-SW 0,00 h 0,026 mm 0,0 UV-I 0 W/m 17,0 C 16,6 C 17,2 km/h (3 Bft) 95,41 %
11.07.2017 00:00 17,8 C 26,1 C 93 % 1010,1 hPa 0,2 l/m 7,2 km/h (2 Bft) S-SW 0,00 h 0,000 mm 0,0 UV-I 0 W/m 16,6 C 17,3 C 12,5 km/h (3 Bft) 94,68 %
11.07.2017 01:00 17,7 C 26,1 C 93 % 1010,1 hPa 0,0 l/m 4,7 km/h (1 Bft) SW 0,00 h 0,000 mm 0,0 UV-I 0 W/m 16,6 C 17,7 C 7,7 km/h (2 Bft) 95,88 %
11.07.2017 02:00 17,7 C 25,7 C 94 % 1010,2 hPa 0,0 l/m 4,3 km/h (1 Bft) W-SW 0,00 h 0,000 mm 0,0 UV-I 0 W/m 16,7 C 17,7 C 7,1 km/h (2 Bft) 96,60 %
11.07.2017 03:00 17,7 C 25,6 C 95 % 1010,9 hPa 0,4 l/m 7,2 km/h (2 Bft) W-SW 0,00 h 0,000 mm 0,0 UV-I 0 W/m 16,9 C 17,0 C 11,6 km/h (2 Bft) 95,01 %
11.07.2017 04:00 17,8 C 25,6 C 94 % 1011,4 hPa 0,0 l/m 9,8 km/h (2 Bft) W-SW 0,00 h 0,000 mm 0,0 UV-I 0 W/m 16,7 C 16,4 C 16,0 km/h (3 Bft) 95,23 %
11.07.2017 05:00 17,3 C 25,3 C 90 % 1011,8 hPa 0,0 l/m 13,1 km/h (3 Bft) SW 0,00 h 0,000 mm 0,0 UV-I 5 W/m 15,6 C 14,7 C 20,0 km/h (4 Bft) 96,03 %
11.07.2017 06:00 17,2 C 25,0 C 88 % 1011,8 hPa 0,0 l/m 6,8 km/h (2 Bft) SW 0,00 h 0,025 mm 0,0 UV-I 55 W/m 15,2 C 16,9 C 10,7 km/h (2 Bft) 96,12 %
11.07.2017 07:00 17,9 C 25,0 C 86 % 1012,2 hPa 0,0 l/m 8,4 km/h (2 Bft) W-SW 0,10 h 0,051 mm 0,3 UV-I 145 W/m 15,5 C 17,0 C 13,0 km/h (3 Bft) 96,13 %
11.07.2017 08:00 19,2 C 25,0 C 82 % 1012,4 hPa 0,0 l/m 7,4 km/h (2 Bft) SW 0,57 h 0,102 mm 1,2 UV-I 359 W/m 16,1 C 18,6 C 11,8 km/h (2 Bft) 95,14 %
11.07.2017 09:00 21,2 C 25,4 C 71 % 1012,5 hPa 0,0 l/m 18,2 km/h (3 Bft) W-SW 0,80 h 0,228 mm 2,3 UV-I 539 W/m 15,7 C 18,1 C 27,8 km/h (4 Bft) 97,14 %
11.07.2017 10:00 22,3 C 25,6 C 63 % 1012,7 hPa 0,0 l/m 18,6 km/h (3 Bft) W-SW 0,67 h 0,407 mm 3,6 UV-I 606 W/m 14,9 C 19,5 C 30,1 km/h (5 Bft) 97,65 %
11.07.2017 11:00 23,2 C 25,6 C 59 % 1013,0 hPa 0,0 l/m 16,3 km/h (3 Bft) W 0,73 h 0,482 mm 4,7 UV-I 712 W/m 14,6 C 20,9 C 26,8 km/h (4 Bft) 95,51 %
11.07.2017 12:00 23,8 C 25,6 C 55 % 1012,9 hPa 0,0 l/m 13,1 km/h (3 Bft) W 0,43 h 0,508 mm 4,1 UV-I 553 W/m 14,1 C 22,2 C 22,5 km/h (4 Bft) 96,01 %
11.07.2017 13:00 24,4 C 25,7 C 54 % 1012,7 hPa 0,0 l/m 13,5 km/h (3 Bft) W-SW 0,53 h 0,407 mm 4,8 UV-I 624 W/m 14,3 C 22,8 C 21,0 km/h (4 Bft) 96,87 %
11.07.2017 14:00 25,8 C 26,1 C 49 % 1012,3 hPa 0,0 l/m 12,0 km/h (2 Bft) W-SW 0,83 h 0,508 mm 5,3 UV-I 827 W/m 14,3 C 24,7 C 19,4 km/h (3 Bft) 97,55 %
11.07.2017 15:00 26,6 C 26,1 C 45 % 1011,9 hPa 0,0 l/m 10,5 km/h (2 Bft) W-SW 0,83 h 0,584 mm 4,0 UV-I 699 W/m 13,6 C 25,9 C 17,9 km/h (3 Bft) 95,12 %
11.07.2017 16:00 26,9 C 26,4 C 43 % 1011,6 hPa 0,0 l/m 9,0 km/h (2 Bft) W-SW 1,00 h 0,533 mm 3,0 UV-I 675 W/m 13,3 C 26,4 C 16,4 km/h (3 Bft) 97,46 %
11.07.2017 17:00 26,2 C 26,7 C 45 % 1011,1 hPa 0,0 l/m 6,8 km/h (2 Bft) W-SW 0,63 h 0,483 mm 1,5 UV-I 387 W/m 13,4 C 26,0 C 12,9 km/h (3 Bft) 96,78 %
11.07.2017 18:00 26,4 C 26,7 C 44 % 1011,0 hPa 0,0 l/m 5,9 km/h (2 Bft) W-SW 0,83 h 0,305 mm 0,9 UV-I 336 W/m 13,1 C 26,3 C 12,1 km/h (2 Bft) 97,66 %
11.07.2017 19:00 24,8 C 26,7 C 48 % 1011,5 hPa 0,0 l/m 4,1 km/h (1 Bft) W 0,07 h 0,254 mm 0,0 UV-I 90 W/m 13,0 C 24,8 C 8,0 km/h (2 Bft) 95,06 %
11.07.2017 20:00 23,8 C 26,4 C 50 % 1011,9 hPa 0,0 l/m 4,6 km/h (1 Bft) W-SW 0,00 h 0,101 mm 0,0 UV-I 18 W/m 12,8 C 23,8 C 7,9 km/h (2 Bft) 96,73 %
11.07.2017 21:00 22,4 C 26,1 C 57 % 1012,2 hPa 0,0 l/m 3,3 km/h (1 Bft) W-SW 0,00 h 0,051 mm 0,0 UV-I 6 W/m 13,5 C 22,4 C 5,3 km/h (1 Bft) 95,45 %
11.07.2017 22:00 21,1 C 26,1 C 68 % 1012,8 hPa 0,0 l/m 6,2 km/h (2 Bft) S 0,00 h 0,026 mm 0,0 UV-I 0 W/m 15,0 C 20,9 C 11,1 km/h (2 Bft) 97,77 %
11.07.2017 23:00 20,4 C 26,1 C 74 % 1013,1 hPa 0,0 l/m 5,3 km/h (1 Bft) SW 0,00 h 0,025 mm 0,0 UV-I 0 W/m 15,5 C 20,3 C 7,9 km/h (2 Bft) 94,27 %
12.07.2017 00:00 19,9 C 25,9 C 76 % 1013,3 hPa 0,0 l/m 7,4 km/h (2 Bft) SW 0,00 h 0,000 mm 0,0 UV-I 0 W/m 15,6 C 19,4 C 11,4 km/h (2 Bft) 96,94 %
12.07.2017 01:00 19,4 C 25,6 C 79 % 1013,1 hPa 0,0 l/m 6,4 km/h (2 Bft) SW 0,00 h 0,025 mm 0,0 UV-I 0 W/m 15,7 C 19,2 C 9,7 km/h (2 Bft) 96,26 %
12.07.2017 02:00 19,0 C 25,6 C 81 % 1013,2 hPa 0,0 l/m 6,7 km/h (2 Bft) W-SW 0,00 h 0,026 mm 0,0 UV-I 0 W/m 15,6 C 18,7 C 11,1 km/h (2 Bft) 96,88 %
12.07.2017 03:00 18,1 C 25,6 C 82 % 1012,8 hPa 0,0 l/m 4,6 km/h (1 Bft) S-SW 0,00 h 0,025 mm 0,0 UV-I 0 W/m 14,9 C 18,1 C 7,1 km/h (2 Bft) 94,39 %
12.07.2017 04:00 16,7 C 25,2 C 87 % 1012,8 hPa 0,0 l/m 3,2 km/h (1 Bft) NO 0,00 h 0,026 mm 0,0 UV-I 0 W/m 14,6 C 16,7 C 4,9 km/h (1 Bft) 97,69 %
12.07.2017 05:00 16,2 C 25,0 C 90 % 1012,9 hPa 0,0 l/m 1,9 km/h (1 Bft) NO 0,23 h 0,000 mm 0,0 UV-I 19 W/m 14,5 C 16,2 C 3,6 km/h (1 Bft) 95,75 %
12.07.2017 06:00 16,9 C 25,0 C 89 % 1012,7 hPa 0,0 l/m 1,4 km/h (1 Bft) SO 0,83 h 0,025 mm 0,0 UV-I 116 W/m 15,1 C 16,9 C 3,5 km/h (1 Bft) 96,55 %
12.07.2017 07:00 19,4 C 25,0 C 81 % 1012,5 hPa 0,0 l/m 2,8 km/h (1 Bft) SO 0,63 h 0,076 mm 0,7 UV-I 241 W/m 15,9 C 19,4 C 5,1 km/h (1 Bft) 94,31 %
12.07.2017 08:00 21,2 C 25,0 C 72 % 1012,2 hPa 0,0 l/m 3,1 km/h (1 Bft) O-SO 0,87 h 0,153 mm 1,5 UV-I 424 W/m 16,0 C 21,1 C 6,4 km/h (2 Bft) 97,19 %
12.07.2017 09:00 22,7 C 25,1 C 64 % 1011,7 hPa 0,0 l/m 2,5 km/h (1 Bft) SO 0,77 h 0,279 mm 2,5 UV-I 525 W/m 15,5 C 22,7 C 5,2 km/h (1 Bft) 97,30 %
12.07.2017 10:00 23,8 C 25,3 C 57 % 1011,2 hPa 0,0 l/m 2,1 km/h (1 Bft) W 0,43 h 0,305 mm 2,6 UV-I 420 W/m 14,7 C 23,8 C 5,3 km/h (1 Bft) 95,43 %
12.07.2017 11:00 24,2 C 25,6 C 56 % 1010,9 hPa 0,0 l/m 1,8 km/h (1 Bft) O-SO 0,47 h 0,279 mm 3,8 UV-I 501 W/m 14,8 C 24,2 C 4,3 km/h (1 Bft) 95,83 %
12.07.2017 12:00 25,5 C 25,6 C 49 % 1010,7 hPa 0,0 l/m 5,2 km/h (1 Bft) W-SW 0,53 h 0,356 mm 4,2 UV-I 553 W/m 13,9 C 25,4 C 9,9 km/h (2 Bft) 96,25 %
12.07.2017 13:00 26,3 C 25,8 C 49 % 1010,4 hPa 0,0 l/m 6,0 km/h (2 Bft) W 0,90 h 0,381 mm 5,7 UV-I 757 W/m 14,8 C 26,1 C 13,0 km/h (3 Bft) 96,37 %
12.07.2017 14:00 26,3 C 26,1 C 50 % 1009,9 hPa 0,0 l/m 5,7 km/h (1 Bft) W 0,70 h 0,533 mm 4,5 UV-I 598 W/m 15,1 C 26,1 C 12,3 km/h (3 Bft) 94,89 %
12.07.2017 15:00 25,8 C 26,1 C 52 % 1009,7 hPa 0,0 l/m 3,6 km/h (1 Bft) W-SW 0,40 h 0,432 mm 2,5 UV-I 372 W/m 15,1 C 25,8 C 8,0 km/h (2 Bft) 97,11 %
12.07.2017 16:00 26,3 C 26,1 C 52 % 1009,4 hPa 0,0 l/m 4,9 km/h (1 Bft) SW 0,27 h 0,279 mm 2,1 UV-I 366 W/m 15,5 C 26,2 C 9,7 km/h (2 Bft) 97,74 %
12.07.2017 17:00 25,9 C 26,1 C 54 % 1008,8 hPa 0,0 l/m 7,8 km/h (2 Bft) S-SO 0,47 h 0,280 mm 1,4 UV-I 298 W/m 15,8 C 25,5 C 14,4 km/h (3 Bft) 96,67 %
12.07.2017 18:00 25,1 C 26,1 C 59 % 1008,4 hPa 0,0 l/m 6,4 km/h (2 Bft) S-SO 0,00 h 0,254 mm 0,6 UV-I 93 W/m 16,6 C 25,0 C 11,3 km/h (2 Bft) 92,83 %
12.07.2017 19:00 23,6 C 26,1 C 64 % 1008,9 hPa 0,0 l/m 8,0 km/h (2 Bft) W-NW 0,13 h 0,101 mm 0,0 UV-I 81 W/m 16,3 C 23,1 C 14,9 km/h (3 Bft) 97,64 %
12.07.2017 20:00 22,0 C 26,1 C 65 % 1009,8 hPa 0,0 l/m 6,0 km/h (2 Bft) W 0,10 h 0,102 mm 0,0 UV-I 22 W/m 15,1 C 21,8 C 13,0 km/h (3 Bft) 95,02 %
12.07.2017 21:00 19,7 C 26,0 C 81 % 1011,0 hPa 1,2 l/m 7,9 km/h (2 Bft) SW 0,00 h 0,051 mm 0,0 UV-I 4 W/m 16,3 C 19,1 C 13,9 km/h (3 Bft) 96,69 %
12.07.2017 22:00 18,2 C 25,6 C 90 % 1012,3 hPa 0,0 l/m 10,4 km/h (2 Bft) S-SW 0,00 h 0,025 mm 0,0 UV-I 0 W/m 16,5 C 16,7 C 17,1 km/h (3 Bft) 94,47 %
12.07.2017 23:00 18,6 C 25,6 C 86 % 1012,7 hPa 0,0 l/m 14,1 km/h (3 Bft) W-SW 0,00 h 0,026 mm 0,0 UV-I 0 W/m 16,1 C 15,9 C 21,8 km/h (4 Bft) 97,66 %
13.07.2017 00:00 18,2 C 25,4 C 86 % 1013,6 hPa 0,0 l/m 16,1 km/h (3 Bft) W-SW 0,00 h 0,000 mm 0,0 UV-I 0 W/m 15,9 C 14,8 C 23,9 km/h (4 Bft) 96,06 %
13.07.2017 01:00 18,0 C 25,0 C 80 % 1014,6 hPa 0,0 l/m 14,5 km/h (3 Bft) W-SW 0,00 h 0,025 mm 0,0 UV-I 0 W/m 14,4 C 15,0 C 25,9 km/h (4 Bft) 96,35 %
13.07.2017 02:00 16,5 C 25,0 C 78 % 1015,7 hPa 0,0 l/m 13,5 km/h (3 Bft) W-SW 0,00 h 0,051 mm 0,0 UV-I 0 W/m 12,7 C 13,5 C 23,0 km/h (4 Bft) 94,42 %
13.07.2017 03:00 15,6 C 24,8 C 82 % 1016,5 hPa 0,0 l/m 12,5 km/h (3 Bft) W-SW 0,00 h 0,051 mm 0,0 UV-I 0 W/m 12,5 C 12,8 C 19,3 km/h (3 Bft) 97,06 %
13.07.2017 04:00 15,6 C 24,4 C 81 % 1017,0 hPa 0,0 l/m 13,4 km/h (3 Bft) W-SW 0,00 h 0,025 mm 0,0 UV-I 0 W/m 12,4 C 12,5 C 21,0 km/h (4 Bft) 93,16 %
13.07.2017 05:00 15,3 C 24,4 C 81 % 1017,2 hPa 0,0 l/m 13,5 km/h (3 Bft) W-SW 0,33 h 0,026 mm 0,0 UV-I 21 W/m 12,1 C 12,1 C 20,8 km/h (4 Bft) 95,99 %
13.07.2017 06:00 15,8 C 24,0 C 80 % 1017,6 hPa 0,0 l/m 14,2 km/h (3 Bft) W-SW 0,40 h 0,051 mm 0,0 UV-I 78 W/m 12,4 C 12,4 C 22,5 km/h (4 Bft) 94,29 %
13.07.2017 07:00 15,9 C 23,9 C 79 % 1018,2 hPa 0,0 l/m 11,4 km/h (2 Bft) W-SW 0,00 h 0,076 mm 0,0 UV-I 96 W/m 12,3 C 13,7 C 19,2 km/h (3 Bft) 97,50 %
13.07.2017 08:00 16,6 C 23,9 C 76 % 1018,6 hPa 0,0 l/m 10,6 km/h (2 Bft) W-SW 0,33 h 0,076 mm 1,0 UV-I 262 W/m 12,4 C 14,7 C 18,5 km/h (3 Bft) 97,16 %
13.07.2017 09:00 17,3 C 23,9 C 72 % 1018,9 hPa 0,0 l/m 11,0 km/h (2 Bft) W-SW 0,30 h 0,203 mm 1,8 UV-I 347 W/m 12,1 C 15,3 C 19,1 km/h (3 Bft) 96,52 %
13.07.2017 10:00 19,0 C 24,0 C 61 % 1018,8 hPa 0,0 l/m 12,4 km/h (3 Bft) W-SW 0,87 h 0,254 mm 3,8 UV-I 737 W/m 11,4 C 16,8 C 23,0 km/h (4 Bft) 96,30 %
13.07.2017 11:00 19,8 C 24,4 C 54 % 1018,8 hPa 0,0 l/m 13,4 km/h (3 Bft) W-SW 0,93 h 0,457 mm 5,3 UV-I 839 W/m 10,3 C 17,5 C 23,9 km/h (4 Bft) 97,29 %
13.07.2017 12:00 20,6 C 24,4 C 50 % 1018,8 hPa 0,0 l/m 13,0 km/h (3 Bft) W-SW 1,00 h 0,559 mm 6,2 UV-I 916 W/m 9,8 C 18,5 C 24,1 km/h (4 Bft) 96,70 %
13.07.2017 13:00 21,4 C 24,9 C 48 % 1018,6 hPa 0,0 l/m 14,4 km/h (3 Bft) W-SW 1,00 h 0,635 mm 6,3 UV-I 929 W/m 10,0 C 19,1 C 24,0 km/h (4 Bft) 95,83 %
13.07.2017 14:00 22,0 C 25,0 C 44 % 1018,3 hPa 0,0 l/m 11,7 km/h (2 Bft) W-SW 1,00 h 0,661 mm 5,6 UV-I 880 W/m 9,2 C 20,5 C 21,5 km/h (4 Bft) 96,19 %
13.07.2017 15:00 22,6 C 25,4 C 40 % 1018,0 hPa 0,0 l/m 8,7 km/h (2 Bft) W 1,00 h 0,609 mm 4,4 UV-I 781 W/m 8,2 C 21,8 C 17,6 km/h (3 Bft) 98,15 %
13.07.2017 16:00 22,8 C 25,6 C 37 % 1017,7 hPa 0,0 l/m 9,0 km/h (2 Bft) W 1,00 h 0,534 mm 3,0 UV-I 651 W/m 7,4 C 21,9 C 16,9 km/h (3 Bft) 97,11 %
13.07.2017 17:00 22,9 C 25,6 C 37 % 1017,2 hPa 0,0 l/m 6,1 km/h (2 Bft) W 1,00 h 0,482 mm 1,7 UV-I 489 W/m 7,4 C 22,7 C 13,4 km/h (3 Bft) 96,13 %
13.07.2017 18:00 22,6 C 25,6 C 37 % 1016,8 hPa 0,0 l/m 4,8 km/h (1 Bft) W 1,00 h 0,356 mm 0,8 UV-I 318 W/m 7,1 C 22,6 C 10,7 km/h (2 Bft) 95,57 %
13.07.2017 19:00 21,8 C 25,6 C 38 % 1016,6 hPa 0,0 l/m 3,3 km/h (1 Bft) N-NW 0,97 h 0,254 mm 0,4 UV-I 155 W/m 6,6 C 21,8 C 8,2 km/h (2 Bft) 97,80 %
13.07.2017 20:00 19,6 C 25,6 C 41 % 1016,6 hPa 0,0 l/m 1,8 km/h (1 Bft) NW 0,53 h 0,127 mm 0,0 UV-I 38 W/m 6,0 C 19,6 C 4,4 km/h (1 Bft) 96,65 %
13.07.2017 21:00 16,2 C 25,0 C 56 % 1016,9 hPa 0,0 l/m 0,6 km/h (0 Bft) NW 0,00 h 0,051 mm 0,0 UV-I 6 W/m 7,2 C 16,2 C 1,4 km/h (1 Bft) 96,56 %
13.07.2017 22:00 14,5 C 25,0 C 62 % 1017,2 hPa 0,0 l/m 1,1 km/h (1 Bft) O-SO 0,00 h 0,025 mm 0,0 UV-I 0 W/m 7,2 C 14,5 C 2,0 km/h (1 Bft) 95,47 %
13.07.2017 23:00 13,3 C 25,0 C 66 % 1017,1 hPa 0,0 l/m 1,1 km/h (1 Bft) O-SO 0,00 h 0,025 mm 0,0 UV-I 0 W/m 7,0 C 13,3 C 2,2 km/h (1 Bft) 98,49 %
14.07.2017 00:00 12,4 C 24,5 C 70 % 1016,9 hPa 0,0 l/m 0,4 km/h (0 Bft) O-SO 0,00 h 0,000 mm 0,0 UV-I 0 W/m 7,0 C 12,4 C 1,4 km/h (1 Bft) 96,39 %
14.07.2017 01:00 12,0 C 24,4 C 72 % 1016,5 hPa 0,0 l/m 1,6 km/h (1 Bft) O 0,00 h 0,000 mm 0,0 UV-I 0 W/m 7,0 C 12,0 C 3,0 km/h (1 Bft) 96,32 %
14.07.2017 02:00 11,9 C 24,3 C 75 % 1016,3 hPa 0,0 l/m 2,4 km/h (1 Bft) O-NO 0,00 h 0,000 mm 0,0 UV-I 0 W/m 7,6 C 11,9 C 3,5 km/h (1 Bft) 96,78 %
14.07.2017 03:00 11,8 C 23,9 C 78 % 1016,0 hPa 0,0 l/m 4,1 km/h (1 Bft) O-NO 0,00 h 0,025 mm 0,0 UV-I 0 W/m 8,1 C 11,2 C 6,8 km/h (2 Bft) 97,97 %
14.07.2017 04:00 12,0 C 23,9 C 76 % 1015,7 hPa 0,0 l/m 5,2 km/h (1 Bft) O-NO 0,00 h 0,026 mm 0,0 UV-I 0 W/m 7,9 C 11,5 C 8,4 km/h (2 Bft) 94,63 %
14.07.2017 05:00 11,1 C 23,8 C 81 % 1015,7 hPa 0,0 l/m 1,4 km/h (1 Bft) NO 0,03 h 0,025 mm 0,0 UV-I 13 W/m 7,9 C 11,1 C 3,2 km/h (1 Bft) 97,63 %
14.07.2017 06:00 11,9 C 23,3 C 77 % 1015,5 hPa 0,0 l/m 3,9 km/h (1 Bft) O-NO 0,50 h 0,026 mm 0,0 UV-I 103 W/m 8,1 C 11,9 C 6,7 km/h (2 Bft) 96,21 %
14.07.2017 07:00 13,8 C 23,3 C 71 % 1015,4 hPa 0,0 l/m 8,1 km/h (2 Bft) O-NO 0,87 h 0,050 mm 0,6 UV-I 228 W/m 8,6 C 12,6 C 12,7 km/h (3 Bft) 95,43 %
14.07.2017 08:00 14,9 C 23,3 C 66 % 1015,2 hPa 0,0 l/m 12,3 km/h (3 Bft) O-NO 0,63 h 0,153 mm 0,9 UV-I 275 W/m 8,7 C 12,1 C 17,6 km/h (3 Bft) 96,56 %
14.07.2017 09:00 15,9 C 23,3 C 62 % 1015,3 hPa 0,0 l/m 9,3 km/h (2 Bft) O-NO 0,03 h 0,203 mm 1,3 UV-I 271 W/m 8,7 C 14,5 C 14,7 km/h (3 Bft) 98,42 %
14.07.2017 10:00 17,8 C 23,3 C 57 % 1015,0 hPa 0,0 l/m 8,6 km/h (2 Bft) O-NO 0,63 h 0,203 mm 2,5 UV-I 506 W/m 9,1 C 16,7 C 13,9 km/h (3 Bft) 96,93 %
14.07.2017 11:00 17,9 C 23,3 C 57 % 1015,1 hPa 0,0 l/m 3,2 km/h (1 Bft) N 0,00 h 0,330 mm 1,4 UV-I 219 W/m 9,3 C 17,8 C 6,1 km/h (2 Bft) 95,07 %
14.07.2017 12:00 17,7 C 23,3 C 63 % 1015,5 hPa 0,0 l/m 4,3 km/h (1 Bft) W-SW 0,00 h 0,153 mm 1,6 UV-I 242 W/m 10,5 C 17,7 C 6,8 km/h (2 Bft) 95,49 %
14.07.2017 13:00 18,9 C 23,3 C 63 % 1015,4 hPa 0,0 l/m 10,1 km/h (2 Bft) S-SW 0,57 h 0,152 mm 3,8 UV-I 565 W/m 11,6 C 17,4 C 16,2 km/h (3 Bft) 98,20 %
14.07.2017 14:00 20,5 C 23,3 C 62 % 1014,6 hPa 0,0 l/m 8,4 km/h (2 Bft) SW 0,87 h 0,381 mm 4,3 UV-I 684 W/m 12,8 C 19,7 C 14,7 km/h (3 Bft) 97,04 %
14.07.2017 15:00 21,4 C 23,9 C 58 % 1013,8 hPa 0,0 l/m 4,8 km/h (1 Bft) W 0,67 h 0,457 mm 3,3 UV-I 567 W/m 12,8 C 21,4 C 10,4 km/h (2 Bft) 95,90 %
14.07.2017 16:00 21,4 C 23,9 C 54 % 1013,4 hPa 0,0 l/m 4,3 km/h (1 Bft) NW 0,00 h 0,381 mm 1,3 UV-I 214 W/m 11,8 C 21,3 C 9,4 km/h (2 Bft) 96,15 %
14.07.2017 17:00 19,4 C 23,9 C 57 % 1014,3 hPa 0,0 l/m 11,6 km/h (2 Bft) W-SW 0,00 h 0,153 mm 0,0 UV-I 54 W/m 10,6 C 17,5 C 19,9 km/h (4 Bft) 97,62 %
14.07.2017 18:00 15,7 C 23,4 C 82 % 1014,6 hPa 0,0 l/m 12,7 km/h (3 Bft) S-SW 0,20 h 0,101 mm 0,0 UV-I 110 W/m 12,7 C 12,9 C 21,5 km/h (4 Bft) 96,64 %
14.07.2017 19:00 16,6 C 23,3 C 79 % 1014,3 hPa 0,0 l/m 9,6 km/h (2 Bft) S-SW 0,20 h 0,102 mm 0,0 UV-I 103 W/m 13,0 C 15,2 C 16,4 km/h (3 Bft) 95,57 %
14.07.2017 20:00 16,2 C 23,3 C 82 % 1014,5 hPa 0,0 l/m 5,2 km/h (1 Bft) S-SW 0,00 h 0,076 mm 0,0 UV-I 17 W/m 13,1 C 16,1 C 9,3 km/h (2 Bft) 96,40 %
14.07.2017 21:00 15,5 C 23,3 C 87 % 1015,2 hPa 0,6 l/m 9,4 km/h (2 Bft) W-SW 0,00 h 0,026 mm 0,0 UV-I 0 W/m 13,4 C 14,1 C 14,2 km/h (3 Bft) 97,83 %
14.07.2017 22:00 15,0 C 23,0 C 90 % 1015,3 hPa 0,2 l/m 9,4 km/h (2 Bft) S-SW 0,00 h 0,025 mm 0,0 UV-I 0 W/m 13,3 C 13,4 C 15,2 km/h (3 Bft) 97,53 %
14.07.2017 23:00 14,2 C 22,8 C 89 % 1015,9 hPa 0,0 l/m 14,2 km/h (3 Bft) W-SW 0,00 h 0,025 mm 0,0 UV-I 0 W/m 12,4 C 10,6 C 22,4 km/h (4 Bft) 96,08 %
15.07.2017 00:00 13,6 C 22,8 C 91 % 1015,9 hPa 0,2 l/m 8,4 km/h (2 Bft) SW 0,00 h 0,000 mm 0,0 UV-I 0 W/m 12,1 C 12,5 C 12,6 km/h (3 Bft) 96,89 %
15.07.2017 01:00 13,2 C 22,8 C 93 % 1015,7 hPa 0,0 l/m 7,2 km/h (2 Bft) SW 0,00 h 0,000 mm 0,0 UV-I 0 W/m 12,0 C 12,5 C 11,1 km/h (2 Bft) 98,29 %
15.07.2017 02:00 13,0 C 22,2 C 93 % 1015,4 hPa 0,0 l/m 3,3 km/h (1 Bft) S-SW 0,00 h 0,000 mm 0,0 UV-I 0 W/m 11,8 C 12,7 C 5,9 km/h (2 Bft) 96,06 %
15.07.2017 03:00 13,2 C 22,2 C 93 % 1015,5 hPa 0,0 l/m 4,1 km/h (1 Bft) SW 0,00 h 0,000 mm 0,0 UV-I 0 W/m 12,1 C 12,8 C 7,2 km/h (2 Bft) 96,86 %
15.07.2017 04:00 13,9 C 22,2 C 90 % 1015,9 hPa 3,6 l/m 13,0 km/h (3 Bft) W-SW 0,00 h 0,000 mm 0,0 UV-I 0 W/m 12,3 C 10,7 C 19,3 km/h (3 Bft) 97,55 %
15.07.2017 05:00 13,0 C 22,2 C 92 % 1016,3 hPa 1,2 l/m 9,4 km/h (2 Bft) SW 0,00 h 0,025 mm 0,0 UV-I 7 W/m 11,7 C 11,2 C 14,7 km/h (3 Bft) 98,41 %
15.07.2017 06:00 12,9 C 21,9 C 92 % 1016,9 hPa 0,0 l/m 8,3 km/h (2 Bft) SW 0,00 h 0,000 mm 0,0 UV-I 39 W/m 11,6 C 11,7 C 12,8 km/h (3 Bft) 95,41 %
15.07.2017 07:00 12,8 C 21,7 C 92 % 1017,3 hPa 0,6 l/m 9,8 km/h (2 Bft) SW 0,00 h 0,026 mm 0,0 UV-I 46 W/m 11,6 C 10,8 C 15,5 km/h (3 Bft) 96,59 %
15.07.2017 08:00 12,8 C 21,7 C 94 % 1017,7 hPa 0,4 l/m 11,3 km/h (2 Bft) SW 0,00 h 0,025 mm 0,6 UV-I 95 W/m 11,9 C 10,2 C 17,3 km/h (3 Bft) 96,96 %
15.07.2017 09:00 13,5 C 21,7 C 93 % 1018,4 hPa 0,0 l/m 11,3 km/h (2 Bft) W-SW 0,13 h 0,051 mm 0,8 UV-I 151 W/m 12,4 C 10,9 C 17,9 km/h (3 Bft) 98,18 %
15.07.2017 10:00 15,3 C 21,7 C 87 % 1018,4 hPa 0,0 l/m 13,2 km/h (3 Bft) W-SW 0,33 h 0,127 mm 2,2 UV-I 392 W/m 13,2 C 12,2 C 20,2 km/h (4 Bft) 94,68 %
15.07.2017 11:00 16,1 C 21,8 C 76 % 1018,5 hPa 0,0 l/m 18,5 km/h (3 Bft) W-SW 0,43 h 0,279 mm 3,1 UV-I 548 W/m 11,8 C 11,6 C 30,0 km/h (5 Bft) 95,38 %
15.07.2017 12:00 16,6 C 22,0 C 72 % 1019,2 hPa 0,2 l/m 15,6 km/h (3 Bft) W-SW 0,57 h 0,356 mm 3,7 UV-I 595 W/m 11,5 C 13,0 C 26,5 km/h (4 Bft) 97,08 %
15.07.2017 13:00 15,8 C 22,2 C 72 % 1019,7 hPa 0,0 l/m 14,5 km/h (3 Bft) W 0,13 h 0,381 mm 1,8 UV-I 240 W/m 10,7 C 12,4 C 23,9 km/h (4 Bft) 97,76 %
15.07.2017 14:00 16,0 C 22,2 C 72 % 1020,0 hPa 0,0 l/m 14,3 km/h (3 Bft) W-SW 0,00 h 0,178 mm 1,5 UV-I 234 W/m 10,8 C 12,7 C 23,3 km/h (4 Bft) 94,74 %
15.07.2017 15:00 17,1 C 22,2 C 66 % 1020,2 hPa 0,0 l/m 14,4 km/h (3 Bft) W-SW 0,47 h 0,178 mm 2,4 UV-I 426 W/m 10,8 C 14,0 C 24,6 km/h (4 Bft) 94,40 %
15.07.2017 16:00 17,0 C 22,2 C 66 % 1020,5 hPa 0,0 l/m 12,5 km/h (3 Bft) W 0,00 h 0,304 mm 1,3 UV-I 268 W/m 10,6 C 14,6 C 20,8 km/h (4 Bft) 96,46 %
15.07.2017 17:00 18,4 C 22,2 C 57 % 1020,4 hPa 0,0 l/m 11,3 km/h (2 Bft) W-SW 0,53 h 0,204 mm 1,1 UV-I 305 W/m 9,5 C 16,4 C 18,9 km/h (3 Bft) 95,16 %
15.07.2017 18:00 18,1 C 22,2 C 55 % 1020,5 hPa 0,0 l/m 11,4 km/h (2 Bft) W-SW 0,00 h 0,254 mm 0,6 UV-I 127 W/m 9,0 C 16,1 C 19,7 km/h (3 Bft) 97,23 %
15.07.2017 19:00 17,5 C 21,7 C 57 % 1021,0 hPa 0,0 l/m 7,7 km/h (2 Bft) W-SW 0,00 h 0,152 mm 0,0 UV-I 53 W/m 8,8 C 16,9 C 14,6 km/h (3 Bft) 95,26 %
15.07.2017 20:00 16,8 C 21,7 C 59 % 1021,5 hPa 0,0 l/m 4,9 km/h (1 Bft) W-SW 0,00 h 0,076 mm 0,0 UV-I 15 W/m 8,8 C 16,7 C 9,0 km/h (2 Bft) 97,82 %
15.07.2017 21:00 16,1 C 21,7 C 64 % 1022,0 hPa 0,0 l/m 6,8 km/h (2 Bft) W-SW 0,00 h 0,051 mm 0,0 UV-I 4 W/m 9,3 C 15,7 C 10,2 km/h (2 Bft) 97,11 %
15.07.2017 22:00 15,6 C 21,7 C 67 % 1022,5 hPa 0,0 l/m 6,1 km/h (2 Bft) W-SW 0,00 h 0,051 mm 0,0 UV-I 0 W/m 9,5 C 15,4 C 9,4 km/h (2 Bft) 97,26 %
15.07.2017 23:00 14,7 C 21,1 C 74 % 1022,7 hPa 0,0 l/m 7,6 km/h (2 Bft) SW 0,00 h 0,025 mm 0,0 UV-I 0 W/m 10,1 C 14,0 C 11,1 km/h (2 Bft) 95,69 %
16.07.2017 00:00 13,9 C 21,1 C 79 % 1022,9 hPa 0,0 l/m 7,8 km/h (2 Bft) SW 0,00 h 0,000 mm 0,0 UV-I 0 W/m 10,3 C 13,1 C 11,4 km/h (2 Bft) 94,80 %
16.07.2017 01:00 13,2 C 21,1 C 82 % 1023,0 hPa 0,0 l/m 7,6 km/h (2 Bft) SW 0,00 h 0,025 mm 0,0 UV-I 0 W/m 10,1 C 12,4 C 11,6 km/h (2 Bft) 97,33 %
16.07.2017 02:00 12,4 C 21,1 C 85 % 1022,9 hPa 0,0 l/m 6,9 km/h (2 Bft) SW 0,00 h 0,026 mm 0,0 UV-I 0 W/m 9,8 C 12,0 C 9,9 km/h (2 Bft) 96,28 %
16.07.2017 03:00 11,7 C 20,6 C 88 % 1022,9 hPa 0,0 l/m 5,3 km/h (1 Bft) SW 0,00 h 0,025 mm 0,0 UV-I 0 W/m 9,7 C 11,6 C 7,7 km/h (2 Bft) 96,57 %
16.07.2017 04:00 11,4 C 20,6 C 90 % 1022,9 hPa 0,0 l/m 5,1 km/h (1 Bft) S-SW 0,00 h 0,000 mm 0,0 UV-I 0 W/m 9,7 C 11,3 C 7,8 km/h (2 Bft) 96,90 %
16.07.2017 05:00 10,9 C 20,6 C 91 % 1023,1 hPa 0,0 l/m 3,8 km/h (1 Bft) S-SW 0,07 h 0,000 mm 0,0 UV-I 13 W/m 9,4 C 10,9 C 5,7 km/h (1 Bft) 97,23 %
16.07.2017 06:00 11,4 C 20,6 C 90 % 1023,6 hPa 0,0 l/m 2,7 km/h (1 Bft) W-SW 0,00 h 0,000 mm 0,0 UV-I 62 W/m 9,8 C 11,4 C 4,4 km/h (1 Bft) 95,24 %
16.07.2017 07:00 12,6 C 20,6 C 86 % 1024,1 hPa 0,0 l/m 2,5 km/h (1 Bft) W-SW 0,23 h 0,026 mm 0,5 UV-I 127 W/m 10,2 C 12,6 C 4,4 km/h (1 Bft) 95,78 %
16.07.2017 08:00 14,1 C 20,6 C 80 % 1024,3 hPa 0,0 l/m 4,9 km/h (1 Bft) W 0,40 h 0,076 mm 1,1 UV-I 275 W/m 10,7 C 13,9 C 8,4 km/h (2 Bft) 96,38 %
16.07.2017 09:00 16,8 C 20,6 C 71 % 1024,4 hPa 0,0 l/m 6,0 km/h (2 Bft) W 0,90 h 0,152 mm 2,5 UV-I 584 W/m 11,4 C 16,4 C 11,1 km/h (2 Bft) 94,51 %
16.07.2017 10:00 18,5 C 20,6 C 63 % 1024,3 hPa 0,0 l/m 5,3 km/h (1 Bft) SW 0,93 h 0,356 mm 3,9 UV-I 748 W/m 11,2 C 18,3 C 11,3 km/h (2 Bft) 95,14 %
16.07.2017 11:00 20,0 C 21,0 C 54 % 1024,0 hPa 0,0 l/m 6,6 km/h (2 Bft) W 0,83 h 0,432 mm 5,0 UV-I 777 W/m 10,4 C 19,5 C 12,9 km/h (3 Bft) 96,11 %
16.07.2017 12:00 20,9 C 21,1 C 50 % 1023,7 hPa 0,0 l/m 5,7 km/h (1 Bft) W-NW 0,63 h 0,482 mm 5,4 UV-I 657 W/m 9,9 C 20,6 C 11,5 km/h (2 Bft) 96,69 %
16.07.2017 13:00 22,0 C 21,7 C 45 % 1023,2 hPa 0,0 l/m 7,4 km/h (2 Bft) W 1,00 h 0,483 mm 6,2 UV-I 912 W/m 9,5 C 21,4 C 13,7 km/h (3 Bft) 94,27 %
16.07.2017 14:00 21,8 C 22,0 C 43 % 1022,7 hPa 0,0 l/m 4,4 km/h (1 Bft) W-SW 0,33 h 0,584 mm 3,5 UV-I 504 W/m 8,7 C 21,7 C 10,0 km/h (2 Bft) 96,53 %
16.07.2017 15:00 22,5 C 22,2 C 41 % 1022,4 hPa 0,0 l/m 5,4 km/h (1 Bft) W-SW 0,50 h 0,305 mm 3,3 UV-I 612 W/m 8,6 C 22,2 C 10,8 km/h (2 Bft) 96,90 %
16.07.2017 16:00 22,9 C 22,2 C 40 % 1022,0 hPa 0,0 l/m 4,5 km/h (1 Bft) SW 0,43 h 0,432 mm 2,0 UV-I 430 W/m 8,7 C 22,7 C 9,1 km/h (2 Bft) 98,13 %
16.07.2017 17:00 22,1 C 22,2 C 42 % 1021,7 hPa 0,0 l/m 2,7 km/h (1 Bft) S-SW 0,00 h 0,279 mm 0,8 UV-I 139 W/m 8,6 C 22,1 C 5,2 km/h (1 Bft) 94,86 %
16.07.2017 18:00 23,0 C 22,2 C 40 % 1021,4 hPa 0,0 l/m 6,3 km/h (2 Bft) SW 0,67 h 0,127 mm 0,7 UV-I 290 W/m 8,7 C 22,8 C 11,0 km/h (2 Bft) 95,37 %
16.07.2017 19:00 22,3 C 22,2 C 42 % 1021,3 hPa 0,0 l/m 4,9 km/h (1 Bft) SW 0,60 h 0,254 mm 0,0 UV-I 118 W/m 8,7 C 22,3 C 8,1 km/h (2 Bft) 96,57 %
16.07.2017 20:00 21,2 C 22,2 C 44 % 1021,3 hPa 0,0 l/m 3,5 km/h (1 Bft) W-SW 0,43 h 0,127 mm 0,0 UV-I 35 W/m 8,5 C 21,2 C 5,7 km/h (1 Bft) 97,46 %
16.07.2017 21:00 18,6 C 22,2 C 58 % 1021,6 hPa 0,0 l/m 1,2 km/h (1 Bft) W-SW 0,00 h 0,051 mm 0,0 UV-I 5 W/m 10,1 C 18,6 C 2,9 km/h (1 Bft) 95,31 %
16.07.2017 22:00 17,0 C 22,1 C 64 % 1021,8 hPa 0,0 l/m 2,7 km/h (1 Bft) W-SW 0,00 h 0,025 mm 0,0 UV-I 0 W/m 10,1 C 17,0 C 5,0 km/h (1 Bft) 96,31 %
16.07.2017 23:00 16,4 C 21,7 C 67 % 1021,8 hPa 0,0 l/m 4,6 km/h (1 Bft) S-SW 0,00 h 0,026 mm 0,0 UV-I 0 W/m 10,3 C 16,4 C 7,1 km/h (2 Bft) 96,07 %
Min-Datum _ 14.07.17 16.07.17 13.07.17 10.07.17 - 10.07.17 - - - - - 13.07.17 15.07.17 10.07.17 13.07.17
_ Min-Zeit 05:54 02:58 16:06 20:42 - 00:52 - - - - - 20:14 08:44 02:52 04:05
Minimum _ 10,7 C 20,6 C 35 % 1006,6 hPa - 0,0 km/h (0 Bft) - - - - - 5,6 C 7,5 C 0,0 km/h (0 Bft) 4,76 %
Max-Datum _ 10.07.17 10.07.17 10.07.17 16.07.17 10.07.17 11.07.17 - 15.07.17 13.07.17 12.07.17 12.07.17 10.07.17 10.07.17 13.07.17 10.07.17
_ Max-Zeit 17:20 15:20 06:16 08:30 22:04 10:34 - 09:58 14:00 13:34 13:54 10:38 17:24 14:52 00:40
Maximum _ 29,3 C 26,7 C 98 % 1024,4 hPa 8,8 l/m 27,9 km/h
W-SW (4 Bft)
- 0,13 h 0,661 mm 7,5 UV-I 1195 W/m 19,7 C 29,2 C 53,1 km/h
W-SW (7 Bft)
100,00 %
Durchschnitt _ 18,9 C 24,1 C 70 % 1015,1 hPa #19,8 l/m 7,3 km/h (2 Bft) W-SW #51:13 h #29,261 mm 2,7 UV-I 337 W/m 12,7 C 18,0 C 12,6 km/h (3 Bft) 96,33 %